METAR Data
IDs: Format: Raw Decoded Include TAF

Data at: 2022 UTC 14 Dec 2018

KERV 142015Z AUTO 32019G25KT 10SM SCT041 BKN048 OVC055 12/00 A3011 RMK AO2 T01200000
KERV 141955Z AUTO 33016G25KT 10SM SCT037 OVC048 11/00 A3011 RMK AO2 T01140001
KERV 141935Z AUTO 33020G27KT 10SM OVC035 11/01 A3011 RMK AO2 T01080005
KERV 141915Z AUTO 32019G27KT 10SM OVC029 11/01 A3012 RMK AO2 T01090013
KERV 141855Z AUTO 32020G28KT 10SM OVC029 11/01 A3012 RMK AO2 T01060009
KERV 141835Z AUTO 32021G27KT 10SM OVC031 11/01 A3012 RMK AO2 T01080009
KERV 141815Z AUTO 32017G31KT 10SM OVC035 11/00 A3013 RMK AO2 T01060000
KERV 141755Z AUTO 33018G28KT 10SM OVC033 11/00 A3013 RMK AO2 T01060002 10106 20036
KERV 141735Z AUTO 32020G26KT 10SM OVC031 09/00 A3013 RMK AO2 T00921004
KERV 141715Z AUTO 31014G25KT 10SM BKN035 OVC041 09/M01 A3014 RMK AO2 T00921010
KERV 141655Z AUTO 32018G28KT 10SM OVC034 09/M01 A3013 RMK AO2 T00891012
KERV 141635Z AUTO 31015G20KT 10SM OVC032 08/M03 A3013 RMK AO2 T00751026
KERV 141615Z AUTO 32014G25KT 10SM OVC030 08/M02 A3013 RMK AO2 T00801020
KERV 141555Z AUTO 31016G26KT 10SM OVC028 07/M02 A3012 RMK AO2 T00681022
KERV 141535Z AUTO 32019G22KT 10SM OVC028 07/M02 A3011 RMK AO2 T00651024
KERV 141515Z AUTO 32016G26KT 10SM OVC028 06/M02 A3010 RMK AO2 T00631022
KERV 141455Z AUTO 32016G24KT 10SM OVC028 06/M02 A3008 RMK AO2 T00601022
KERV 141435Z AUTO 32023G29KT 10SM OVC028 06/M02 A3007 RMK AO2 T00571023
KERV 141415Z AUTO 32020G26KT 10SM OVC028 05/M03 A3006 RMK AO2 T00531026
KERV 141355Z AUTO 32019G26KT 10SM OVC028 05/M02 A3006 RMK AO2 T00501024
KERV 141335Z AUTO 32017G21KT 10SM BKN028 04/M02 A3005 RMK AO2 T00421019
KERV 141315Z AUTO 32016G22KT 10SM SCT028 04/M01 A3005 RMK AO2 T00371015
KERV 141255Z AUTO 33017G22KT 10SM SCT028 04/M01 A3004 RMK AO2 T00361008
KERV 141235Z AUTO 33017G24KT 10SM SCT028 04/00 A3003 RMK AO2 T00360000
KERV 141215Z AUTO 33015G21KT 10SM BKN028 04/00 A3003 RMK AO2 T00360000
KERV 141155Z AUTO 33016G22KT 10SM SCT030 04/00 A3002 RMK AO2 T00361001 10056 20028
KERV 141135Z AUTO 32018G23KT 10SM SCT032 SCT038 04/00 A3001 RMK AO2 T00360000
KERV 141115Z AUTO 32016G22KT 10SM BKN034 03/00 A3001 RMK AO2 T00300000
KERV 141055Z AUTO 33016G24KT 10SM SCT022 BKN034 OVC055 03/00 A3001 RMK AO2 T00300003
KERV 141035Z AUTO 32015G24KT 10SM -RA SCT020 BKN030 OVC044 03/01 A3001 RMK AO2 T00300005
KERV 141015Z AUTO 32018G25KT 10SM DZ BKN020 BKN030 OVC037 03/00 A3001 RMK AO2 T00320004
KERV 140955Z AUTO 33020G33KT 10SM -DZ BKN023 BKN037 04/01 A3001 RMK AO2 T00360005
KERV 140935Z AUTO 33025G32KT 10SM SCT027 04/00 A2999 RMK AO2 T00391003
KERV 140915Z AUTO 32023G29KT 10SM CLR 04/00 A2998 RMK AO2 T00431005
KERV 140855Z AUTO 32021G27KT 10SM CLR 04/00 A2998 RMK AO2 T00400000
KERV 140835Z AUTO 32021G34KT 10SM SCT028 05/00 A2998 RMK AO2 T00450001
KERV 140815Z AUTO 32022G32KT 10SM SCT027 SCT047 05/00 A2997 RMK AO2 T00500000
KERV 140755Z AUTO 32027G36KT 10SM -DZ SCT049 SCT060 SCT070 05/00 A2997 RMK AO2 T00520000
KERV 140735Z AUTO 32018G30KT 10SM CLR 05/00 A2997 RMK AO2 T00500002
KERV 140715Z AUTO 32014G20KT 10SM SCT047 SCT055 05/02 A2997 RMK AO2 T00500017
KERV 140655Z AUTO 33015G26KT 10SM SCT022 SCT026 OVC047 05/02 A2998 RMK AO2 T00500017
KERV 140635Z AUTO 32020G29KT 10SM -DZ SCT022 BKN028 OVC085 05/02 A2998 RMK AO2 T00500019
KERV 140615Z AUTO 32020G30KT 10SM -RA SCT028 SCT046 BKN085 06/02 A2998 RMK AO2 T00560015
KERV 140555Z AUTO 33019G34KT 10SM -DZ SCT025 BKN030 OVC048 05/02 A2997 RMK AO2 T00500015 10065 20050 401620050
KERV 140535Z AUTO 32022G37KT 10SM -RA OVC027 05/02 A2997 RMK AO2 T00530015
KERV 140515Z AUTO 32023G30KT 10SM BKN027 06/02 A2995 RMK AO2 T00570015
KERV 140455Z AUTO 32021G33KT 10SM BKN027 BKN031 06/01 A2995 RMK AO2 T00570014
KERV 140435Z AUTO 32024G36KT 10SM OVC027 06/01 A2996 RMK AO2 T00570013
KERV 140415Z AUTO 31021G35KT 10SM OVC027 06/01 A2995 RMK AO2 T00570011
KERV 140355Z AUTO 31019G30KT 10SM OVC025 05/01 A2996 RMK AO2 T00540010
KERV 140335Z AUTO 31015G29KT 10SM BKN027 BKN070 05/01 A2996 RMK AO2 T00520010
KERV 140315Z AUTO 32022G35KT 10SM BKN025 OVC065 06/01 A2996 RMK AO2 T00570011
KERV 140255Z AUTO 31024G33KT 10SM OVC025 06/01 A2995 RMK AO2 T00570011
KERV 140235Z AUTO 31023G30KT 10SM OVC025 06/01 A2995 RMK AO2 T00570011
KERV 140215Z AUTO 31022G34KT 10SM OVC025 06/01 A2995 RMK AO2 T00580011
KERV 140155Z AUTO 30022G33KT 10SM OVC025 06/01 A2995 RMK AO2 T00610013
KERV 140135Z AUTO 31015G28KT 10SM OVC025 06/02 A2995 RMK AO2 T00640015
KERV 140115Z AUTO 31016G32KT 10SM OVC027 07/02 A2995 RMK AO2 T00650015
KERV 140055Z AUTO 30020G30KT 10SM OVC027 07/01 A2995 RMK AO2 T00650014
KERV 140035Z AUTO 30021G29KT 10SM OVC027 07/01 A2995 RMK AO2 T00650014
KERV 140015Z AUTO 30026G32KT 10SM OVC029 07/01 A2994 RMK AO2 T00650011
KERV 132355Z AUTO 30015G20KT 10SM OVC029 07/01 A2993 RMK AO2 T00650012 10162 20065
KERV 132335Z AUTO 31019G27KT 10SM OVC031 07/01 A2993 RMK AO2 T00680011
KERV 132315Z AUTO 31021G26KT 10SM OVC033 07/01 A2991 RMK AO2 T00710012
KERV 132255Z AUTO 31019G30KT 10SM OVC033 08/02 A2991 RMK AO2 T00780015
KERV 132235Z AUTO 30022G33KT 10SM OVC033 08/02 A2990 RMK AO2 T00780015
KERV 132215Z AUTO 31015G25KT 10SM OVC035 09/02 A2988 RMK AO2 T00850017
KERV 132155Z AUTO 30018G26KT 10SM OVC033 09/02 A2988 RMK AO2 T00850020
KERV 132135Z AUTO 29015G32KT 10SM OVC033 09/02 A2988 RMK AO2 T00920023
KERV 132115Z AUTO 29022G30KT 10SM BKN040 BKN045 11/02 A2986 RMK AO2 LTG DSNT N T01060016
KERV 132055Z AUTO 28020G35KT 10SM BKN042 12/02 A2986 RMK AO2 T01170016
KERV 132035Z AUTO 27025G31KT 10SM SCT070 14/01 A2983 RMK AO2 LTG DSNT N AND NE T01370005
KERV 132015Z AUTO 29019G28KT 10SM SCT070 15/M02 A2982 RMK AO2 T01491022
KERV 131955Z AUTO 29018G29KT 10SM CLR 16/M04 A2981 RMK AO2 T01621045
KERV 131935Z AUTO 27019G28KT 10SM CLR 16/M05 A2981 RMK AO2 LTG DSNT N T01621054
KERV 131915Z AUTO 27018G27KT 10SM CLR 16/M05 A2982 RMK AO2 T01621055
KERV 131855Z AUTO 27020G26KT 10SM CLR 16/M05 A2982 RMK AO2 T01621049
KERV 131835Z AUTO 29021G27KT 10SM CLR 16/M04 A2983 RMK AO2 T01621039
KERV 131815Z AUTO 30016G26KT 10SM CLR 16/M04 A2983 RMK AO2 T01621038
KERV 131755Z AUTO 29018G32KT 10SM CLR 16/M04 A2984 RMK AO2 T01621041 10162 20065
KERV 131735Z AUTO 30018G30KT 10SM CLR 16/M02 A2983 RMK AO2 T01621018
KERV 131715Z AUTO 28018G28KT 10SM CLR 16/M01 A2983 RMK AO2 T01621012
KERV 131655Z AUTO 30013G28KT 10SM CLR 15/02 A2983 RMK AO2 LTG DSNT NE T01490017
KERV 131635Z AUTO 29016G24KT 10SM CLR 15/04 A2984 RMK AO2 T01480036
KERV 131615Z AUTO 30022G28KT 10SM CLR 15/04 A2983 RMK AO2 T01480043
KERV 131555Z AUTO 30017G23KT 10SM CLR 15/07 A2981 RMK AO2 T01510067
KERV 131535Z AUTO 30015G21KT 10SM CLR 15/08 A2979 RMK AO2 T01480084
KERV 131515Z AUTO 30013G16KT 10SM CLR 12/10 A2979 RMK AO2 T01160101
KERV 131455Z AUTO 33004KT 10SM SCT002 SCT009 10/09 A2979 RMK AO2 T00980087
KERV 131435Z AUTO 00000KT 1/4SM FG OVC002 07/06 A2978 RMK AO2 T00720061
KERV 131415Z AUTO 00000KT M1/4SM FG OVC002 07/06 A2977 RMK AO2 T00660055
KERV 131355Z AUTO 00000KT M1/4SM FG OVC002 07/05 A2976 RMK AO2 T00650053
KERV 131335Z AUTO 00000KT 1/2SM FG OVC002 07/05 A2976 RMK AO2 T00650053
KERV 131315Z AUTO 00000KT M1/4SM FG OVC002 07/06 A2976 RMK AO2 T00680057
KERV 131255Z AUTO 00000KT 1/4SM FG OVC002 07/06 A2976 RMK AO2 T00680057
KERV 131235Z AUTO 00000KT 1/4SM FG OVC002 07/06 A2976 RMK AO2 T00710060
KERV 131215Z AUTO 00000KT 1/4SM FG OVC002 07/06 A2975 RMK AO2 T00680057
KERV 131155Z AUTO 00000KT 2 1/2SM BR OVC004 07/06 A2975 RMK AO2 T00710060 10120 20065
KERV 131135Z AUTO 00000KT 1/2SM FG OVC004 07/05 A2974 RMK AO2 T00650053
KERV 131115Z AUTO 00000KT 1/4SM FG OVC001 07/05 A2975 RMK AO2 T00650052
KERV 131055Z AUTO 00000KT M1/4SM FG OVC001 07/06 A2975 RMK AO2 T00710060
KERV 131035Z AUTO 00000KT 1/4SM FG OVC001 07/06 A2976 RMK AO2 T00670055
KERV 131015Z AUTO 00000KT M1/4SM FG OVC001 07/06 A2976 RMK AO2 T00720061
KERV 130955Z AUTO 00000KT M1/4SM FG OVC001 07/06 A2976 RMK AO2 T00720060
KERV 130935Z AUTO 00000KT 1/4SM FG OVC004 08/07 A2976 RMK AO2 T00840071
KERV 130915Z AUTO 36003KT 2 1/2SM BR SCT008 09/08 A2977 RMK AO2 LTG DSNT NE T00920080
KERV 130855Z AUTO 00000KT 2 1/2SM BR SCT120 09/08 A2978 RMK AO2 LTG DSNT E T00900078
KERV 130835Z AUTO 29004KT 7SM BKN120 09/08 A2979 RMK AO2 T00920079